Time;durP1;ratioP1;P1;durP2;ratioP2;P2;SDS_P1;SDS_P2;PMS_P1;PMS_P2;Temp;Humidity;BMP_temperature;BMP_pressure;BME280_temperature;BME280_humidity;BME280_pressure;Samples;Min_cycle;Max_cycle;Signal;HPM_P1;HPM_P2
2024/01/31 00:00:10;;;;;;;6.33;4.73;;;;;;;7.05;100.00;102283.47;5053436;28;20719;-67
2024/01/31 00:02:39;;;;;;;5.17;4.57;;;;;;;7.09;100.00;102284.13;5053693;28;20293;-67
2024/01/31 00:05:08;;;;;;;5.37;4.67;;;;;;;7.06;100.00;102294.97;5053264;28;20754;-67
2024/01/31 00:07:37;;;;;;;4.30;3.90;;;;;;;7.02;100.00;102296.16;5053198;28;20593;-67
2024/01/31 00:10:06;;;;;;;3.97;3.40;;;;;;;7.07;100.00;102299.34;5053593;28;20202;-67
2024/01/31 00:12:36;;;;;;;3.97;3.57;;;;;;;7.05;99.85;102303.94;5053245;28;20210;-67
2024/01/31 00:15:05;;;;;;;4.63;3.50;;;;;;;7.05;99.71;102301.28;5053164;28;20316;-67
2024/01/31 00:17:34;;;;;;;4.10;3.30;;;;;;;7.01;99.14;102299.75;5053479;28;20206;-67
2024/01/31 00:20:02;;;;;;;5.07;3.50;;;;;;;6.99;98.67;102306.97;5053458;28;20210;-67
2024/01/31 00:22:31;;;;;;;3.10;2.80;;;;;;;6.96;99.03;102299.19;5053095;28;20229;-67
2024/01/31 00:24:59;;;;;;;4.47;3.03;;;;;;;6.98;99.02;102305.28;5053341;28;20230;-67
2024/01/31 00:27:28;;;;;;;4.87;3.30;;;;;;;6.96;98.48;102304.50;5053314;28;20261;-67
2024/01/31 00:29:58;;;;;;;3.97;2.70;;;;;;;6.90;98.54;102305.78;5053020;28;20296;-67
2024/01/31 00:32:27;;;;;;;5.30;3.17;;;;;;;6.93;98.50;102305.56;5053315;28;20297;-67
2024/01/31 00:34:55;;;;;;;4.80;2.70;;;;;;;6.91;98.45;102303.97;5053091;28;20258;-67
2024/01/31 00:37:24;;;;;;;3.87;3.27;;;;;;;6.88;98.50;102306.84;5053312;28;20197;-67
2024/01/31 00:39:52;;;;;;;3.60;2.50;;;;;;;6.82;98.89;102318.72;5053260;28;20288;-67
2024/01/31 00:42:21;;;;;;;4.40;2.47;;;;;;;6.77;99.69;102307.53;5053239;28;20210;-67
2024/01/31 00:44:49;;;;;;;4.00;2.40;;;;;;;6.79;100.00;102312.72;5052862;28;20599;-67
2024/01/31 00:47:19;;;;;;;4.67;2.57;;;;;;;6.78;100.00;102317.19;5052806;28;20593;-67
2024/01/31 00:49:48;;;;;;;4.93;2.20;;;;;;;6.76;100.00;102307.59;5052879;28;20640;-67
2024/01/31 00:52:17;;;;;;;3.23;2.73;;;;;;;6.74;100.00;102298.88;5053193;28;20214;-67
2024/01/31 00:54:45;;;;;;;4.93;2.77;;;;;;;6.73;100.00;102306.00;5053061;28;20297;-67
2024/01/31 00:57:17;;;;;;;3.67;3.00;;;;;;;6.71;100.00;102299.06;5053452;28;20210;-67
2024/01/31 00:59:45;;;;;;;5.20;2.80;;;;;;;6.63;100.00;102308.41;5053135;28;20244;-67
2024/01/31 01:02:14;;;;;;;3.23;2.93;;;;;;;6.65;100.00;102308.28;5053085;28;20305;-67
2024/01/31 01:04:44;;;;;;;6.10;3.63;;;;;;;6.61;100.00;102310.28;5052944;28;20228;-67
2024/01/31 01:07:13;;;;;;;3.80;3.40;;;;;;;6.58;100.00;102313.13;5052639;28;20704;-67
2024/01/31 01:09:41;;;;;;;4.43;3.10;;;;;;;6.59;100.00;102314.84;5052709;28;20672;-67
2024/01/31 01:12:10;;;;;;;4.87;3.20;;;;;;;6.57;100.00;102318.56;5052994;28;20234;-66
2024/01/31 01:14:38;;;;;;;4.33;3.67;;;;;;;6.61;100.00;102315.59;5052865;28;20222;-67
2024/01/31 01:17:07;;;;;;;3.50;3.20;;;;;;;6.58;100.00;102326.44;5052937;28;20206;-67
2024/01/31 01:19:35;;;;;;;4.43;3.13;;;;;;;6.61;100.00;102317.41;5052575;28;20751;-67
2024/01/31 01:22:05;;;;;;;4.87;3.50;;;;;;;6.60;100.00;102313.06;5052569;28;20710;-67
2024/01/31 01:24:34;;;;;;;4.10;3.00;;;;;;;6.56;100.00;102317.72;5056131;28;20226;-67
2024/01/31 01:27:02;;;;;;;5.07;3.70;;;;;;;6.56;100.00;102325.69;5056228;28;20704;-67
2024/01/31 01:29:31;;;;;;;2.73;2.30;;;;;;;6.53;100.00;102322.38;5056570;28;20643;-67
2024/01/31 01:32:00;;;;;;;3.67;2.50;;;;;;;6.50;100.00;102326.09;5056481;28;20301;-67
2024/01/31 01:34:28;;;;;;;3.53;2.47;;;;;;;6.45;100.00;102314.88;5056288;28;20226;-67
2024/01/31 01:36:57;;;;;;;3.43;2.60;;;;;;;6.45;100.00;102328.16;5056021;28;20210;-66
2024/01/31 01:39:27;;;;;;;6.03;3.20;;;;;;;6.46;100.00;102323.69;5056031;28;20576;-66
2024/01/31 01:41:56;;;;;;;4.57;3.30;;;;;;;6.49;100.00;102327.03;5055991;28;20699;-67
2024/01/31 01:44:24;;;;;;;4.90;3.03;;;;;;;6.48;100.00;102330.63;5056219;28;20253;-67
2024/01/31 01:46:53;;;;;;;3.87;2.83;;;;;;;6.42;100.00;102333.69;5056206;28;20254;-67
2024/01/31 01:49:22;;;;;;;3.80;2.70;;;;;;;6.42;100.00;102336.34;5055844;28;20680;-67
2024/01/31 01:51:51;;;;;;;4.33;2.33;;;;;;;6.34;100.00;102338.59;5056127;28;20209;-67
2024/01/31 01:54:20;;;;;;;2.23;1.87;;;;;;;6.36;100.00;102347.38;5055996;28;20262;-67
2024/01/31 01:56:51;;;;;;;2.33;2.03;;;;;;;6.34;100.00;102343.94;5056041;28;20201;-67
2024/01/31 01:59:20;;;;;;;2.47;2.03;;;;;;;6.28;100.00;102354.09;5055701;28;20659;-67
2024/01/31 02:01:49;;;;;;;2.63;2.43;;;;;;;6.28;100.00;102354.94;5055639;28;20202;-67
2024/01/31 02:04:19;;;;;;;2.60;2.37;;;;;;;6.28;100.00;102360.25;5055510;28;20730;-67
2024/01/31 02:06:48;;;;;;;3.03;2.20;;;;;;;6.25;100.00;102370.22;5055722;28;20257;-67
2024/01/31 02:09:17;;;;;;;2.73;2.23;;;;;;;6.20;100.00;102367.84;5055804;28;20206;-67
2024/01/31 02:11:46;;;;;;;2.90;2.30;;;;;;;6.20;100.00;102375.00;5055720;28;20300;-67
2024/01/31 02:14:16;;;;;;;4.53;2.80;;;;;;;6.17;100.00;102384.00;5055317;28;20787;-67
2024/01/31 02:16:45;;;;;;;4.20;2.70;;;;;;;6.12;100.00;102388.75;5055638;28;20248;-67
2024/01/31 02:19:14;;;;;;;5.13;3.13;;;;;;;6.09;100.00;102383.63;5055576;28;20208;-67
2024/01/31 02:21:44;;;;;;;3.63;2.40;;;;;;;6.05;100.00;102390.91;5055527;28;20206;-67
2024/01/31 02:24:14;;;;;;;2.90;2.40;;;;;;;6.03;100.00;102398.09;5055107;28;20225;-67
2024/01/31 02:26:42;;;;;;;4.80;2.20;;;;;;;5.96;100.00;102406.53;5055358;28;20252;-67
2024/01/31 02:29:11;;;;;;;1.60;1.50;;;;;;;5.95;100.00;102404.84;5055381;28;20206;-67
2024/01/31 02:31:40;;;;;;;2.77;2.00;;;;;;;5.93;100.00;102399.59;5054988;28;20619;-67
2024/01/31 02:34:08;;;;;;;3.37;1.97;;;;;;;5.95;100.00;102404.84;5055142;28;20222;-67
2024/01/31 02:36:37;;;;;;;2.43;1.73;;;;;;;5.85;100.00;102409.81;5054907;28;20214;-67
2024/01/31 02:39:06;;;;;;;3.17;1.70;;;;;;;5.89;100.00;102407.88;5054917;28;20301;-67
2024/01/31 02:41:35;;;;;;;3.37;1.90;;;;;;;5.83;100.00;102410.81;5054811;28;20297;-67
2024/01/31 02:44:04;;;;;;;4.13;1.80;;;;;;;5.85;100.00;102415.13;5055071;28;20222;-67
2024/01/31 02:46:33;;;;;;;2.53;1.57;;;;;;;5.85;100.00;102411.59;5055086;28;20577;-66
2024/01/31 02:49:01;;;;;;;2.30;1.60;;;;;;;5.78;100.00;102412.91;5054978;28;20234;-66
2024/01/31 02:51:31;;;;;;;4.60;1.90;;;;;;;5.75;100.00;102421.06;5054695;28;20213;-67
2024/01/31 02:53:59;;;;;;;2.53;1.50;;;;;;;5.77;100.00;102421.81;5054907;28;20592;-66
2024/01/31 02:56:28;;;;;;;4.10;2.03;;;;;;;5.77;100.00;102412.03;5054849;28;20210;-66
2024/01/31 02:58:57;;;;;;;3.30;1.73;;;;;;;5.71;100.00;102411.53;5054842;28;20240;-66
2024/01/31 03:01:26;;;;;;;3.37;1.90;;;;;;;5.77;100.00;102409.38;5054753;28;20245;-67
2024/01/31 03:03:54;;;;;;;3.37;1.57;;;;;;;5.75;100.00;102402.47;5054689;28;20222;-66
2024/01/31 03:06:23;;;;;;;2.57;1.50;;;;;;;5.69;100.00;102419.59;5054682;28;20212;-66
2024/01/31 03:08:51;;;;;;;6.20;1.60;;;;;;;5.63;100.00;102414.63;5054573;28;20222;-67
2024/01/31 03:11:20;;;;;;;3.30;1.30;;;;;;;5.68;100.00;102422.34;5054577;28;20632;-67
2024/01/31 03:13:50;;;;;;;2.10;1.50;;;;;;;5.66;100.00;102414.47;5054856;28;20234;-66
2024/01/31 03:16:20;;;;;;;2.80;1.40;;;;;;;5.61;100.00;102422.72;5055505;28;20205;-66
2024/01/31 03:18:48;;;;;;;2.70;1.53;;;;;;;5.62;100.00;102424.41;5054422;28;20202;-66
2024/01/31 03:21:17;;;;;;;2.60;1.40;;;;;;;5.66;100.00;102429.53;5054378;28;20202;-66
2024/01/31 03:23:45;;;;;;;2.63;1.23;;;;;;;5.58;99.56;102414.88;5053974;28;20720;-67
2024/01/31 03:26:14;;;;;;;2.37;1.27;;;;;;;5.61;99.76;102412.09;5054303;28;20242;-67
2024/01/31 03:28:42;;;;;;;3.47;1.20;;;;;;;5.54;100.00;102418.69;5053918;28;20704;-66
2024/01/31 03:31:11;;;;;;;1.67;1.27;;;;;;;5.56;100.00;102418.59;5054186;28;20262;-66
2024/01/31 03:33:40;;;;;;;3.53;1.33;;;;;;;5.56;100.00;102424.75;5053770;28;20248;-66
2024/01/31 03:36:11;;;;;;;2.33;1.07;;;;;;;5.54;100.00;102426.66;5053648;28;20574;-67
2024/01/31 03:38:40;;;;;;;1.63;1.20;;;;;;;5.56;100.00;102423.91;5054050;28;20209;-66
2024/01/31 03:41:09;;;;;;;2.73;1.33;;;;;;;5.52;99.25;102433.84;5053994;28;20293;-67
2024/01/31 03:43:38;;;;;;;1.33;1.10;;;;;;;5.52;98.45;102423.22;5053566;28;20230;-67
2024/01/31 03:46:08;;;;;;;3.00;1.20;;;;;;;5.44;97.72;102422.81;5053504;28;20210;-66
2024/01/31 03:48:36;;;;;;;1.20;1.10;;;;;;;5.47;97.96;102417.31;5053537;28;20718;-66
2024/01/31 03:51:06;;;;;;;1.57;1.10;;;;;;;5.40;97.37;102420.41;5053907;28;20579;-66
2024/01/31 03:53:34;;;;;;;3.70;1.20;;;;;;;5.41;97.83;102415.00;5053758;28;20284;-66
2024/01/31 03:56:03;;;;;;;1.63;1.30;;;;;;;5.39;98.44;102419.53;5053768;28;20206;-66
2024/01/31 03:58:34;;;;;;;2.83;1.20;;;;;;;5.38;98.82;102425.78;5053726;28;20233;-66
2024/01/31 04:01:03;;;;;;;3.33;1.87;;;;;;;5.36;99.41;102429.47;5053750;28;20194;-66
2024/01/31 04:03:32;;;;;;;3.60;1.27;;;;;;;5.38;99.32;102431.09;5053790;28;20225;-67
2024/01/31 04:06:00;;;;;;;2.23;1.40;;;;;;;5.34;99.07;102434.03;5053536;28;20218;-66
2024/01/31 04:08:30;;;;;;;1.60;1.23;;;;;;;5.36;99.17;102432.13;5053136;28;20265;-66
2024/01/31 04:10:58;;;;;;;1.40;1.30;;;;;;;5.41;98.90;102440.72;5053544;28;20309;-67
2024/01/31 04:13:27;;;;;;;1.43;1.23;;;;;;;5.36;100.00;102438.31;5054136;28;20254;-67
2024/01/31 04:15:56;;;;;;;2.73;1.50;;;;;;;5.40;98.96;102436.34;5053495;28;20256;-66
2024/01/31 04:18:24;;;;;;;4.30;2.07;;;;;;;5.38;98.83;102441.72;5053429;28;20212;-66
2024/01/31 04:20:53;;;;;;;8.70;4.70;;;;;;;5.40;99.34;102436.34;5053442;28;20210;-66
2024/01/31 04:23:21;;;;;;;24.67;13.53;;;;;;;5.38;99.66;102439.06;5053034;28;20738;-66
2024/01/31 04:25:51;;;;;;;31.07;17.20;;;;;;;5.39;100.00;102439.94;5053374;28;20301;-66
2024/01/31 04:28:21;;;;;;;4.03;3.00;;;;;;;5.33;100.00;102443.78;5053594;28;20316;-66
2024/01/31 04:30:50;;;;;;;4.70;2.17;;;;;;;5.31;100.00;102450.16;5053315;28;20205;-66
2024/01/31 04:33:20;;;;;;;3.73;2.37;;;;;;;5.32;100.00;102450.03;5053244;28;20233;-67
2024/01/31 04:35:48;;;;;;;4.23;2.80;;;;;;;5.25;100.00;102458.44;5053042;28;20591;-67
2024/01/31 04:38:17;;;;;;;3.67;2.70;;;;;;;5.25;100.00;102453.13;5053305;28;20285;-67
2024/01/31 04:40:46;;;;;;;3.40;2.67;;;;;;;5.24;100.00;102454.06;5053285;28;20202;-67
2024/01/31 04:43:17;;;;;;;3.67;2.70;;;;;;;5.13;100.00;102453.81;5053177;28;20206;-67
2024/01/31 04:45:46;;;;;;;4.63;2.50;;;;;;;5.07;100.00;102452.31;5054086;28;20216;-67
2024/01/31 04:48:15;;;;;;;3.20;2.47;;;;;;;5.13;100.00;102444.03;5053147;28;20225;-67
2024/01/31 04:50:44;;;;;;;4.77;2.50;;;;;;;5.07;100.00;102445.22;5052847;28;20210;-67
2024/01/31 04:53:13;;;;;;;2.97;2.17;;;;;;;5.10;100.00;102441.56;5052777;28;20210;-67
2024/01/31 04:55:41;;;;;;;3.50;2.40;;;;;;;5.05;100.00;102443.59;5053122;28;20202;-67
2024/01/31 04:58:10;;;;;;;2.93;2.50;;;;;;;5.03;100.00;102456.09;5053983;28;20758;-67
2024/01/31 05:00:40;;;;;;;4.67;2.80;;;;;;;5.04;100.00;102463.09;5057037;28;20206;-66
2024/01/31 05:03:08;;;;;;;2.70;2.37;;;;;;;5.08;100.00;102462.00;5056916;28;20209;-66
2024/01/31 05:05:38;;;;;;;4.43;2.60;;;;;;;5.03;100.00;102451.63;5057000;28;20236;-66
2024/01/31 05:08:07;;;;;;;3.57;2.93;;;;;;;5.06;100.00;102455.94;5056891;28;20280;-66
2024/01/31 05:10:36;;;;;;;5.90;3.53;;;;;;;4.99;100.00;102466.03;5056807;28;20309;-67
2024/01/31 05:13:05;;;;;;;3.43;2.57;;;;;;;5.02;100.00;102465.84;5056781;28;20233;-67
2024/01/31 05:15:33;;;;;;;3.60;2.53;;;;;;;5.01;100.00;102468.59;5056515;28;20621;-66
2024/01/31 05:18:03;;;;;;;3.20;2.27;;;;;;;5.01;100.00;102460.63;5056783;28;20206;-67
2024/01/31 05:20:32;;;;;;;3.97;2.40;;;;;;;5.02;100.00;102476.47;5056702;28;20208;-66
2024/01/31 05:23:02;;;;;;;2.70;2.03;;;;;;;4.99;100.00;102475.78;5056591;28;20214;-66
2024/01/31 05:25:30;;;;;;;2.13;1.90;;;;;;;4.99;100.00;102473.13;5056655;28;20209;-66
2024/01/31 05:27:59;;;;;;;1.87;1.50;;;;;;;4.91;100.00;102472.66;5056283;28;20244;-66
2024/01/31 05:30:28;;;;;;;3.67;1.60;;;;;;;4.96;100.00;102484.78;5056492;28;20229;-66
2024/01/31 05:32:56;;;;;;;4.63;1.57;;;;;;;4.92;98.73;102482.34;5056243;28;20672;-66
2024/01/31 05:35:26;;;;;;;3.20;1.73;;;;;;;4.87;97.96;102477.28;5056227;28;20309;-66
2024/01/31 05:37:54;;;;;;;2.60;1.80;;;;;;;4.82;97.35;102481.13;5056404;28;20625;-66
2024/01/31 05:40:23;;;;;;;3.87;2.10;;;;;;;4.88;98.16;102483.44;5056057;28;20206;-66
2024/01/31 05:42:51;;;;;;;3.70;2.13;;;;;;;4.80;96.17;102475.91;5055995;28;20562;-66
2024/01/31 05:45:21;;;;;;;1.87;1.67;;;;;;;4.84;96.46;102487.19;5055907;28;20738;-66
2024/01/31 05:47:50;;;;;;;2.83;1.63;;;;;;;4.82;96.67;102478.47;5055886;28;20699;-66
2024/01/31 05:50:18;;;;;;;2.47;1.40;;;;;;;4.81;96.72;102488.22;5056096;28;20284;-66
2024/01/31 05:52:48;;;;;;;1.93;1.30;;;;;;;4.82;96.72;102478.47;5056157;28;20217;-66
2024/01/31 05:55:17;;;;;;;1.60;1.37;;;;;;;4.78;96.71;102488.41;5055666;28;20230;-67
2024/01/31 05:57:49;;;;;;;2.77;1.40;;;;;;;4.82;97.03;102495.25;5055753;28;20210;-66
2024/01/31 06:00:18;;;;;;;3.23;1.37;;;;;;;4.82;97.06;102489.94;5056046;28;20182;-67
2024/01/31 06:02:47;;;;;;;2.73;1.50;;;;;;;4.86;97.47;102490.66;5055927;28;20214;-67
2024/01/31 06:05:20;;;;;;;2.20;1.40;;;;;;;4.85;98.05;102499.53;5055835;28;20226;-67
2024/01/31 06:07:50;;;;;;;2.43;1.70;;;;;;;4.83;97.99;102491.66;5055845;28;20256;-67
2024/01/31 06:10:19;;;;;;;2.70;1.63;;;;;;;4.78;97.54;102492.84;5055278;28;20279;-67
2024/01/31 06:12:48;;;;;;;4.27;1.80;;;;;;;4.78;96.88;102500.81;5055766;28;20206;-67
2024/01/31 06:15:17;;;;;;;3.37;1.50;;;;;;;4.78;93.84;102492.84;5055610;28;20279;-67
2024/01/31 06:17:45;;;;;;;3.83;1.90;;;;;;;4.77;93.92;102504.38;5055374;28;20202;-67
2024/01/31 06:20:19;;;;;;;6.17;1.97;;;;;;;4.81;93.94;102511.25;5055687;28;20187;-67
2024/01/31 06:22:47;;;;;;;2.17;1.50;;;;;;;4.83;95.57;102517.34;5055563;28;20206;-67
2024/01/31 06:25:18;;;;;;;5.77;1.83;;;;;;;4.82;95.52;102518.28;5055419;28;20234;-67
2024/01/31 06:27:47;;;;;;;3.10;1.70;;;;;;;4.80;93.61;102506.88;5055256;28;20191;-67
2024/01/31 06:30:21;;;;;;;3.73;1.87;;;;;;;4.77;91.99;102512.34;5055352;28;20294;-67
2024/01/31 06:32:49;;;;;;;4.23;2.37;;;;;;;4.75;91.49;102520.41;5055449;28;20186;-67
2024/01/31 06:35:18;;;;;;;5.00;2.00;;;;;;;4.74;90.78;102523.13;5055039;28;20238;-67
2024/01/31 06:37:47;;;;;;;3.10;1.57;;;;;;;4.69;90.83;102522.50;5054960;28;20729;-66
2024/01/31 06:40:17;;;;;;;4.70;1.57;;;;;;;4.70;91.78;102532.16;5054963;28;20702;-67
2024/01/31 06:42:48;;;;;;;3.37;1.30;;;;;;;4.77;92.63;102533.56;5055205;28;20206;-67
2024/01/31 06:45:17;;;;;;;4.00;1.83;;;;;;;4.75;92.27;102527.50;5054792;28;20634;-67
2024/01/31 06:47:45;;;;;;;6.27;2.00;;;;;;;4.71;91.40;102526.78;5054822;28;20614;-67
2024/01/31 06:50:14;;;;;;;5.60;1.73;;;;;;;4.69;89.52;102530.47;5054972;28;20296;-67
2024/01/31 06:52:43;;;;;;;3.13;2.10;;;;;;;4.70;90.68;102537.47;5055030;28;20214;-67
2024/01/31 06:55:11;;;;;;;3.67;2.50;;;;;;;4.63;89.53;102533.41;5054888;28;20222;-67
2024/01/31 06:57:42;;;;;;;5.87;2.73;;;;;;;4.62;90.29;102543.19;5054895;28;20210;-67
2024/01/31 07:00:11;;;;;;;5.03;2.60;;;;;;;4.66;90.15;102538.59;5055979;28;20193;-67
2024/01/31 07:02:40;;;;;;;5.57;2.30;;;;;;;4.66;90.78;102533.28;5054820;28;20252;-67
2024/01/31 07:05:08;;;;;;;4.30;2.40;;;;;;;4.67;90.56;102532.31;5054420;28;20720;-67
2024/01/31 07:07:37;;;;;;;6.27;2.13;;;;;;;4.69;90.75;102534.00;5054692;28;20573;-67
2024/01/31 07:10:07;;;;;;;2.87;1.60;;;;;;;4.63;90.41;102536.06;5054580;28;20226;-67
2024/01/31 07:12:35;;;;;;;6.60;2.27;;;;;;;4.63;90.85;102547.53;5054642;28;20303;-67
2024/01/31 07:15:06;;;;;;;4.77;2.60;;;;;;;4.64;90.51;102545.75;5054472;28;20264;-67
2024/01/31 07:17:35;;;;;;;7.57;3.40;;;;;;;4.60;91.14;102548.56;5054484;28;20202;-67
2024/01/31 07:20:05;;;;;;;3.80;2.87;;;;;;;4.64;90.58;102559.03;5054128;28;20234;-67
2024/01/31 07:22:33;;;;;;;3.03;2.70;;;;;;;4.68;90.67;102555.28;5054071;28;20233;-67
2024/01/31 07:25:02;;;;;;;4.00;2.63;;;;;;;4.67;90.67;102558.84;5053976;28;20584;-67
2024/01/31 07:27:32;;;;;;;4.27;1.93;;;;;;;4.63;90.85;102568.75;5054354;28;20706;-67
2024/01/31 07:30:00;;;;;;;3.63;2.10;;;;;;;4.66;91.25;102565.13;5054208;28;20249;-67
2024/01/31 07:32:30;;;;;;;7.67;1.90;;;;;;;4.65;91.34;102571.34;5054264;28;20202;-67
2024/01/31 07:35:04;;;;;;;3.33;1.80;;;;;;;4.65;91.60;102576.66;5053661;28;20317;-67
2024/01/31 07:37:32;;;;;;;2.70;1.70;;;;;;;4.60;91.83;102574.22;5053857;28;20649;-67
2024/01/31 07:40:01;;;;;;;4.03;2.07;;;;;;;4.54;91.61;102572.75;5053756;28;20571;-67
2024/01/31 07:42:29;;;;;;;4.80;2.20;;;;;;;4.58;92.58;102576.13;5054069;28;20664;-67
2024/01/31 07:44:58;;;;;;;2.73;2.20;;;;;;;4.58;92.32;102576.97;5053601;28;20727;-67
2024/01/31 07:47:27;;;;;;;4.40;2.20;;;;;;;4.59;93.00;102583.13;5053981;28;20206;-67
2024/01/31 07:49:57;;;;;;;4.77;2.37;;;;;;;4.60;92.53;102591.00;5053879;28;20317;-68
2024/01/31 07:52:26;;;;;;;59.57;7.97;;;;;;;4.56;92.06;102588.56;5053916;28;20190;-68
2024/01/31 07:54:55;;;;;;;2.03;1.67;;;;;;;4.55;91.73;102590.38;5053752;28;20276;-67
2024/01/31 07:57:24;;;;;;;3.33;1.50;;;;;;;4.51;91.62;102590.63;5053768;28;20218;-68
2024/01/31 07:59:52;;;;;;;10.00;2.07;;;;;;;4.52;90.62;102587.88;5053752;28;20212;-67
2024/01/31 08:02:21;;;;;;;3.40;1.50;;;;;;;4.51;90.69;102590.63;5053740;28;20232;-67
2024/01/31 08:04:51;;;;;;;3.27;1.50;;;;;;;4.50;90.15;102587.09;5053627;28;20253;-67
2024/01/31 08:07:21;;;;;;;3.63;2.03;;;;;;;4.50;89.43;102583.59;5053598;28;20236;-67
2024/01/31 08:09:49;;;;;;;7.27;2.80;;;;;;;4.48;87.72;102575.72;5053271;28;20225;-67
2024/01/31 08:12:19;;;;;;;4.40;2.70;;;;;;;4.51;88.27;102577.34;5054103;28;20214;-67
2024/01/31 08:14:48;;;;;;;5.67;3.13;;;;;;;4.50;87.04;102579.16;5053763;28;20233;-67
2024/01/31 08:17:17;;;;;;;6.27;2.90;;;;;;;4.53;87.52;102578.13;5053485;28;20213;-67
2024/01/31 08:19:46;;;;;;;5.30;2.47;;;;;;;4.54;88.30;102580.72;5053492;28;20210;-67
2024/01/31 08:22:14;;;;;;;3.30;2.40;;;;;;;4.57;88.45;102588.50;5053471;28;20232;-67
2024/01/31 08:24:44;;;;;;;6.20;2.47;;;;;;;4.55;88.63;102592.19;5053363;28;20230;-67
2024/01/31 08:27:13;;;;;;;7.10;3.87;;;;;;;4.57;87.92;102588.50;5053348;28;20660;-67
2024/01/31 08:29:41;;;;;;;5.30;3.07;;;;;;;4.58;87.96;102582.28;5053419;28;20245;-67
2024/01/31 08:32:09;;;;;;;59.37;8.97;;;;;;;4.59;88.39;102573.38;5053157;28;20283;-68
2024/01/31 08:34:38;;;;;;;4.53;2.60;;;;;;;4.55;87.72;102577.09;5052975;28;20226;-68
2024/01/31 08:37:07;;;;;;;97.53;10.83;;;;;;;4.54;86.96;102574.53;5052942;28;20668;-68
2024/01/31 08:39:35;;;;;;;6.13;2.50;;;;;;;4.56;87.74;102576.19;5053269;28;20210;-67
2024/01/31 08:42:06;;;;;;;2.60;1.87;;;;;;;4.57;87.70;102574.38;5053246;28;20309;-67
2024/01/31 08:44:34;;;;;;;5.10;2.53;;;;;;;4.55;87.66;102577.09;5053158;28;20287;-67
2024/01/31 08:47:03;;;;;;;2.60;1.97;;;;;;;4.56;88.35;102589.44;5053231;28;20289;-67
2024/01/31 08:49:48;;;;;;;3.33;2.10;;;;;;;4.56;88.22;102594.75;5053215;28;20233;-68
2024/01/31 08:52:17;;;;;;;3.10;2.13;;;;;;;4.58;88.15;102592.91;5053308;28;20249;-67
2024/01/31 08:54:46;;;;;;;5.20;2.00;;;;;;;4.58;88.58;102598.19;5053069;28;20233;-67
2024/01/31 08:57:16;;;;;;;4.77;2.10;;;;;;;4.55;87.65;102600.97;5052829;28;20221;-67
2024/01/31 08:59:48;;;;;;;5.07;2.87;;;;;;;4.56;87.98;102599.19;5053105;28;20614;-67
2024/01/31 09:02:16;;;;;;;3.43;1.83;;;;;;;4.56;88.22;102597.41;5053156;28;20238;-67
2024/01/31 09:04:45;;;;;;;3.63;1.50;;;;;;;4.60;88.04;102595.44;5053001;28;20230;-67
2024/01/31 09:07:13;;;;;;;3.70;1.93;;;;;;;4.55;87.58;102598.31;5053082;28;20241;-67
2024/01/31 09:09:42;;;;;;;3.67;1.80;;;;;;;4.55;87.78;102605.44;5053014;28;20209;-67
2024/01/31 09:12:11;;;;;;;3.33;1.83;;;;;;;4.56;88.15;102604.50;5052876;28;20230;-67
2024/01/31 09:14:40;;;;;;;3.03;2.13;;;;;;;4.58;88.56;102618.56;5052884;28;20257;-67
2024/01/31 09:17:09;;;;;;;3.40;1.90;;;;;;;4.61;88.57;102613.09;5052642;28;20207;-67
2024/01/31 09:19:37;;;;;;;5.17;2.20;;;;;;;4.62;88.28;102619.28;5052913;28;20296;-67
2024/01/31 09:22:06;;;;;;;2.47;1.83;;;;;;;4.56;87.49;102615.97;5052894;28;20210;-67
2024/01/31 09:24:35;;;;;;;4.33;2.30;;;;;;;4.59;87.52;102613.16;5052469;28;20651;-67
2024/01/31 09:27:03;;;;;;;2.93;2.10;;;;;;;4.61;87.78;102621.06;5052854;28;20233;-67
2024/01/31 09:29:32;;;;;;;3.50;2.10;;;;;;;4.62;88.22;102635.19;5052808;28;20217;-67
2024/01/31 09:32:03;;;;;;;4.57;2.43;;;;;;;4.60;87.71;102629.94;5052411;28;20705;-67
2024/01/31 09:34:32;;;;;;;7.87;2.57;;;;;;;4.62;87.90;102640.50;5052428;28;20226;-67
2024/01/31 09:37:01;;;;;;;6.20;2.50;;;;;;;4.60;88.19;102633.47;5052528;28;20245;-67
2024/01/31 09:39:31;;;;;;;4.27;2.17;;;;;;;4.57;87.71;102638.91;5052718;28;20213;-67
2024/01/31 09:41:59;;;;;;;9.50;2.73;;;;;;;4.56;87.82;102647.81;5052967;28;20230;-67
2024/01/31 09:44:30;;;;;;;2.80;2.10;;;;;;;4.54;87.91;102647.03;5054097;28;20226;-67
2024/01/31 09:47:00;;;;;;;11.23;3.30;;;;;;;4.52;88.53;102658.66;5056267;28;20190;-67
2024/01/31 09:49:30;;;;;;;4.07;2.60;;;;;;;4.51;87.20;102639.22;5056221;28;20202;-67
2024/01/31 09:52:00;;;;;;;5.17;2.90;;;;;;;4.48;86.97;102636.72;5056140;28;20214;-67
2024/01/31 09:54:30;;;;;;;4.63;2.90;;;;;;;4.51;87.11;102638.38;5055738;28;20234;-67
2024/01/31 09:57:00;;;;;;;3.43;2.90;;;;;;;4.48;87.46;102634.06;5056049;28;20210;-67
2024/01/31 09:59:29;;;;;;;3.23;2.83;;;;;;;4.51;87.29;102628.63;5055758;28;20241;-67
2024/01/31 10:01:59;;;;;;;5.83;2.97;;;;;;;4.47;86.34;102632.34;5055980;28;20202;-67
2024/01/31 10:04:29;;;;;;;4.93;3.57;;;;;;;4.51;86.47;102625.97;5055827;28;20226;-67
2024/01/31 10:06:59;;;;;;;6.17;3.07;;;;;;;4.51;85.21;102619.78;5055531;28;20622;-67
2024/01/31 10:09:27;;;;;;;6.83;3.90;;;;;;;4.49;85.30;102624.28;5055823;28;20206;-67
2024/01/31 10:11:56;;;;;;;4.43;3.17;;;;;;;4.45;84.36;102612.97;5055757;28;20351;-68
2024/01/31 10:14:24;;;;;;;5.13;4.60;;;;;;;4.44;83.70;102611.28;5055358;28;20229;-67
2024/01/31 10:16:53;;;;;;;3.50;3.20;;;;;;;4.43;83.89;102598.09;5055413;28;20205;-67
2024/01/31 10:19:22;;;;;;;2.77;2.57;;;;;;;4.41;83.17;102595.53;5055402;28;20212;-67
2024/01/31 10:21:52;;;;;;;4.73;2.87;;;;;;;4.45;83.22;102591.75;5055599;28;20198;-67
2024/01/31 10:24:20;;;;;;;2.60;2.03;;;;;;;4.45;83.14;102588.28;5056116;28;20222;-67
2024/01/31 10:26:49;;;;;;;2.73;2.13;;;;;;;4.45;83.00;102589.09;5055542;28;20256;-67
2024/01/31 10:29:19;;;;;;;3.73;2.37;;;;;;;4.51;83.71;102585.31;5055470;28;20212;-67
2024/01/31 10:31:49;;;;;;;3.93;2.57;;;;;;;4.53;84.21;102573.69;5056075;28;20218;-67
2024/01/31 10:34:19;;;;;;;3.30;2.27;;;;;;;4.54;84.49;102570.09;5055365;28;20229;-67
2024/01/31 10:37:04;;;;;;;4.33;2.90;;;;;;;4.58;85.19;102560.19;5055063;28;20228;-67
2024/01/31 10:39:53;;;;;;;3.00;2.40;;;;;;;4.59;84.95;102562.75;5055266;28;20205;-67
2024/01/31 10:42:23;;;;;;;2.77;2.20;;;;;;;4.58;84.28;102550.47;5054927;28;20206;-66
2024/01/31 10:44:51;;;;;;;2.80;2.10;;;;;;;4.56;83.81;102552.31;5055115;28;20222;-67
2024/01/31 10:47:20;;;;;;;2.63;2.17;;;;;;;4.53;84.30;102563.06;5055105;28;20214;-67
2024/01/31 10:49:49;;;;;;;3.80;2.53;;;;;;;4.57;84.47;102550.50;5055196;28;20217;-67
2024/01/31 10:52:22;;;;;;;4.47;2.80;;;;;;;4.59;84.92;102551.28;5055053;28;20225;-67
2024/01/31 10:54:56;;;;;;;3.43;2.17;;;;;;;4.58;84.39;102539.84;5054184;28;20272;-67
2024/01/31 10:57:25;;;;;;;4.60;2.30;;;;;;;4.60;84.74;102543.25;5054404;28;20212;-67
2024/01/31 10:59:56;;;;;;;2.30;2.10;;;;;;;4.59;84.06;102549.50;5054872;28;20285;-67
2024/01/31 11:02:29;;;;;;;3.60;2.20;;;;;;;4.62;84.92;102543.19;5054730;28;20187;-66
2024/01/31 11:04:59;;;;;;;3.23;2.30;;;;;;;4.60;84.22;102537.97;5054552;28;20279;-67
2024/01/31 11:07:30;;;;;;;3.00;2.10;;;;;;;4.60;84.77;102524.69;5054738;28;20213;-67
2024/01/31 11:09:59;;;;;;;3.13;2.23;;;;;;;4.59;84.91;102519.44;5054725;28;20244;-67
2024/01/31 11:12:29;;;;;;;2.20;2.00;;;;;;;4.62;84.99;102519.31;5054569;28;20261;-67
2024/01/31 11:14:59;;;;;;;2.20;2.00;;;;;;;4.56;83.96;102509.88;5054518;28;20313;-67
2024/01/31 11:17:34;;;;;;;1.80;1.70;;;;;;;4.57;84.03;102500.97;5054493;28;20324;-67
2024/01/31 11:20:04;;;;;;;2.17;1.97;;;;;;;4.62;85.33;102508.72;5054565;28;20194;-66
2024/01/31 11:22:34;;;;;;;2.20;1.77;;;;;;;4.65;85.13;102502.38;5054433;28;20244;-67
2024/01/31 11:25:07;;;;;;;2.90;1.63;;;;;;;4.64;83.90;102503.31;5054341;28;20645;-67
2024/01/31 11:27:37;;;;;;;2.47;1.80;;;;;;;4.67;84.46;102511.09;5054004;28;20608;-67
2024/01/31 11:30:06;;;;;;;2.23;1.80;;;;;;;4.65;84.17;102503.25;5053941;28;20646;-67
2024/01/31 11:32:39;;;;;;;4.73;2.80;;;;;;;4.63;84.53;102490.97;5054194;28;20210;-67
2024/01/31 11:35:08;;;;;;;2.90;2.20;;;;;;;4.64;84.47;102474.13;5053758;28;20233;-67
2024/01/31 11:37:37;;;;;;;2.10;1.90;;;;;;;4.68;85.75;102489.81;5053884;28;20186;-67